Terminal Aerodrome Forecast
Issued by NWS

Home | Current Version | Previous Version | Text Only | Print | Product List | Glossary On
Versions: 1 2 3 4 5 6 7 8 9 10 11 12 13
000
FTAK31 PANC 231736
TAFAVD
TAF
PAVD 231736Z 2318/2418 09011KT P6SM BKN200
     FM232200 09010G15KT P6SM BKN060
     FM240300 07020G40KT P6SM SKC
     FM240900 05025G55KT P6SM SKC
      AMD LTD TO CLD VIS AND WIND=

USA.gov is the U.S. government's official web portal to all federal, state and local government web resources and services.